Airfield :
LOGIN :

Register | Disclaimer

   EN    FR    IT 

 










Legend :    VFR   Marginal VFR   IFR   Intensive IFR   Very Intensive IFR
Visi :
Ceiling :
>= 8 km
>= 3000ft
5 to 8 km
1000 to 3000 ft
1500m to 5 km
500 to 1000 ft
800 to 1500m
200 to 500 ft
< 800m
< 200 ft
Symbols :   Thunderstorms  Fog  Heavy snow  Heavy precipitations  Wind > 20 kt
SIGMETs :     Misc.  Thunderstorms  Icing  Turbulence  Mountain Waves  Volcanic Ashes







- Airport Elevation : 52 ft
- IATA code : RNN


EKRN - Bornholm Ronne

CURRENT METAR :
  • 240650Z AUTO 31020G30KT 9999NDV NCD 11/04 Q1013

EXPIRED METARs :
  • 240620Z AUTO 32021KT 9999NDV BKN130/// 11/04 Q1012
  • 240550Z AUTO 31016G29KT 9999NDV SCT140/// 11/06 Q1012
  • 240520Z AUTO 31020KT 9999NDV NCD 11/05 Q1011
  • 240450Z AUTO 31018KT 9999NDV NCD 11/05 Q1011
  • 240420Z AUTO 31020KT 9999NDV NCD 11/04 Q1010

TAF TAF EKRN
Valid from the 24 at 06:00 until the 24 at 15:00 UTC


240512Z 2406/2415 31018KT 9999 SCT025
TEMPO 2406/2409 FEW025CB
No reported NOTAMs for that airfield.
1 SIGMET reported for the Sweden FIR (ESAA) :
 
Severe turbulence
ESAA SIGMET 2 VALID 240400/240800 ESSA
ESAA SWEDEN FIR SEV TURB FCST NW OF LINE N6835 E02144 - N6700 E01622 SFC/FL070 STNR WKN=



MET'MAP, your aeronautical weather chart ! - Copyright ORBIFLY December 2007 - Disclaimer

ORBIFLY MET'MAP TEAM :

Programming & Development : Alexandra Zaïnal
Concept & Development : Baudouin d'Aumeries
Co-Development & Prog : Marc-Olivier Méhu
Technical & hardware support : Manuel Goepfert

Contact : metmap@orbifly.com




SOURCES & CREDITS :

   NOAA